createdAt,value
2018-07-25T00:01:30.672Z,24.00
2018-07-25T00:04:01.757Z,24.00
2018-07-25T00:06:32.510Z,23.90
2018-07-25T00:09:04.108Z,23.90
2018-07-25T00:11:35.780Z,23.90
2018-07-25T00:16:37.153Z,23.80
2018-07-25T00:19:08.490Z,23.80
2018-07-25T00:21:40.038Z,23.80
2018-07-25T00:24:11.040Z,23.70
2018-07-25T00:26:42.799Z,23.70
2018-07-25T00:29:14.460Z,23.60
2018-07-25T00:31:46.288Z,23.60
2018-07-25T00:34:16.913Z,23.60
2018-07-25T00:36:49.255Z,23.50
2018-07-25T00:39:20.234Z,23.50
2018-07-25T00:41:52.825Z,23.50
2018-07-25T00:44:23.591Z,23.50
2018-07-25T00:46:55.308Z,23.50
2018-07-25T00:49:27.003Z,23.40
2018-07-25T00:51:58.126Z,23.40
2018-07-25T00:54:29.728Z,23.40
2018-07-25T00:57:01.412Z,23.40
2018-07-25T00:59:32.916Z,23.40
2018-07-25T01:02:04.201Z,23.40
2018-07-25T01:04:36.114Z,23.40
2018-07-25T01:12:09.160Z,23.40
2018-07-25T01:14:40.119Z,23.40
2018-07-25T01:17:18.046Z,23.30
2018-07-25T01:19:49.210Z,23.30
2018-07-25T01:22:20.494Z,23.30
2018-07-25T01:24:52.023Z,23.30
2018-07-25T01:27:24.333Z,23.20
2018-07-25T01:29:55.649Z,23.20
2018-07-25T01:32:26.399Z,23.20
2018-07-25T01:34:57.725Z,23.10
2018-07-25T01:39:59.660Z,23.10
2018-07-25T01:42:31.559Z,23.00
2018-07-25T01:45:03.628Z,23.00
2018-07-25T01:47:35.753Z,23.00
2018-07-25T01:50:06.669Z,23.00
2018-07-25T01:55:09.674Z,22.90
2018-07-25T01:57:41.050Z,22.90
2018-07-25T02:00:10.991Z,22.90
2018-07-25T02:02:42.615Z,22.90
2018-07-25T02:05:13.536Z,22.80
2018-07-25T02:07:44.848Z,22.80
2018-07-25T02:10:16.149Z,22.80
2018-07-25T02:15:17.739Z,22.70
2018-07-25T02:17:48.466Z,22.70
2018-07-25T02:20:19.224Z,22.60
2018-07-25T02:22:49.832Z,22.60
2018-07-25T02:25:21.336Z,22.50
2018-07-25T02:27:53.076Z,22.50
2018-07-25T02:30:25.462Z,22.40
2018-07-25T02:32:56.085Z,22.40
2018-07-25T02:35:27.459Z,22.30
2018-07-25T02:37:58.804Z,22.30
2018-07-25T02:40:30.403Z,22.20
2018-07-25T02:43:01.111Z,22.20
2018-07-25T02:45:37.418Z,22.20
2018-07-25T02:48:09.339Z,22.20
2018-07-25T02:50:40.467Z,22.20
2018-07-25T02:53:12.476Z,22.10
2018-07-25T02:55:44.396Z,22.10
2018-07-25T02:58:14.800Z,22.00
2018-07-25T03:00:44.991Z,22.00
2018-07-25T03:05:47.366Z,22.00
2018-07-25T03:08:18.977Z,22.00
2018-07-25T03:10:55.068Z,22.00
2018-07-25T03:13:26.462Z,22.00
2018-07-25T03:16:06.540Z,21.90
2018-07-25T03:18:37.385Z,21.90
2018-07-25T03:21:08.394Z,21.90
2018-07-25T03:23:39.022Z,21.90
2018-07-25T03:26:10.550Z,21.90
2018-07-25T03:28:42.030Z,21.90
2018-07-25T03:31:13.934Z,21.90
2018-07-25T03:33:44.784Z,21.90
2018-07-25T03:36:16.608Z,21.90
2018-07-25T03:38:48.330Z,21.80
2018-07-25T03:41:19.485Z,21.80
2018-07-25T03:46:23.035Z,21.80
2018-07-25T03:51:24.669Z,21.80
2018-07-25T03:53:55.653Z,21.70
2018-07-25T03:56:26.894Z,21.70
2018-07-25T03:58:58.764Z,21.70
2018-07-25T04:04:00.047Z,21.70
2018-07-25T04:06:32.015Z,21.70
2018-07-25T04:09:02.968Z,21.70
2018-07-25T04:11:33.330Z,21.70
2018-07-25T04:14:04.483Z,21.70
2018-07-25T04:16:36.433Z,21.70
2018-07-25T04:19:07.852Z,21.70
2018-07-25T04:21:39.932Z,21.60
2018-07-25T04:24:10.770Z,21.60
2018-07-25T04:26:42.308Z,21.60
2018-07-25T04:29:14.327Z,21.70
2018-07-25T04:31:46.280Z,21.70
2018-07-25T04:34:18.109Z,21.70
2018-07-25T04:36:50.827Z,21.70
2018-07-25T04:39:22.403Z,21.70
2018-07-25T04:41:54.049Z,21.70
2018-07-25T04:44:24.780Z,21.70
2018-07-25T04:46:56.222Z,21.70
2018-07-25T04:49:26.718Z,21.80
2018-07-25T04:51:59.019Z,21.80
2018-07-25T04:54:29.920Z,21.80
2018-07-25T04:57:00.902Z,21.80
2018-07-25T04:59:31.115Z,21.80
2018-07-25T05:02:02.206Z,21.80
2018-07-25T05:04:33.520Z,21.80
2018-07-25T05:07:06.004Z,21.90
2018-07-25T05:09:36.987Z,21.90
2018-07-25T05:12:09.981Z,21.90
2018-07-25T05:14:42.289Z,22.00
2018-07-25T05:17:13.492Z,22.00
2018-07-25T05:22:14.155Z,22.10
2018-07-25T05:24:44.457Z,22.10
2018-07-25T05:27:15.974Z,22.10
2018-07-25T05:29:47.270Z,22.20
2018-07-25T05:32:18.476Z,22.20
2018-07-25T05:34:49.778Z,22.20
2018-07-25T05:37:23.073Z,22.20
2018-07-25T05:39:54.263Z,22.30
2018-07-25T05:42:27.856Z,22.30
2018-07-25T05:44:59.119Z,22.40
2018-07-25T05:47:30.401Z,22.40
2018-07-25T05:50:01.421Z,22.50
2018-07-25T05:52:33.758Z,22.60
2018-07-25T05:55:04.942Z,22.60
2018-07-25T05:57:37.083Z,22.70
2018-07-25T06:00:08.190Z,22.80
2018-07-25T06:02:38.751Z,22.80
2018-07-25T06:05:10.183Z,22.90
2018-07-25T06:07:42.762Z,23.00
2018-07-25T06:10:14.237Z,23.00
2018-07-25T06:12:45.548Z,23.10
2018-07-25T06:15:16.495Z,23.20
2018-07-25T06:17:48.199Z,23.30
2018-07-25T06:20:19.858Z,23.40
2018-07-25T06:22:51.707Z,23.50
2018-07-25T06:25:22.815Z,23.50
2018-07-25T06:27:54.408Z,23.60
2018-07-25T06:30:25.252Z,23.70
2018-07-25T06:32:58.120Z,23.80
2018-07-25T06:35:29.726Z,23.80
2018-07-25T06:38:01.870Z,24.00
2018-07-25T06:40:32.498Z,24.10
2018-07-25T06:43:03.742Z,24.20
2018-07-25T06:45:35.082Z,24.30
2018-07-25T06:48:06.451Z,24.30
2018-07-25T06:50:36.716Z,24.40
2018-07-25T06:53:08.003Z,24.50
2018-07-25T06:55:40.399Z,24.60
2018-07-25T06:58:12.995Z,24.70
2018-07-25T07:00:43.844Z,24.80
2018-07-25T07:03:15.902Z,24.90
2018-07-25T07:05:47.576Z,25.00
2018-07-25T07:08:19.403Z,25.10
2018-07-25T07:10:50.503Z,25.20
2018-07-25T07:13:21.789Z,25.30
2018-07-25T07:20:53.923Z,25.60
2018-07-25T07:23:24.560Z,25.70
2018-07-25T07:25:55.622Z,25.90
2018-07-25T07:28:26.872Z,26.00
2018-07-25T07:30:57.233Z,26.10
2018-07-25T07:33:28.848Z,26.20
2018-07-25T07:35:59.748Z,26.40
2018-07-25T07:38:31.524Z,26.50
2018-07-25T07:41:02.454Z,26.70
2018-07-25T07:43:34.090Z,26.80
2018-07-25T07:46:05.981Z,26.90
2018-07-25T07:48:37.179Z,27.10
2018-07-25T07:51:09.179Z,27.20
2018-07-25T07:53:40.907Z,27.30
2018-07-25T07:56:12.374Z,27.40
2018-07-25T07:58:43.293Z,27.40
2018-07-25T08:01:13.702Z,27.50
2018-07-25T08:03:46.261Z,27.60
2018-07-25T08:06:17.560Z,27.80
2018-07-25T08:08:49.392Z,27.80
2018-07-25T08:11:21.957Z,27.90
2018-07-25T08:13:52.900Z,28.00
2018-07-25T08:16:24.413Z,28.10
2018-07-25T08:18:55.669Z,28.20
2018-07-25T08:21:26.782Z,28.30
2018-07-25T08:23:57.885Z,28.40
2018-07-25T08:26:29.460Z,28.50
2018-07-25T08:29:00.098Z,28.60
2018-07-25T08:31:30.871Z,28.70
2018-07-25T08:34:02.053Z,28.70
2018-07-25T08:36:32.600Z,28.80
2018-07-25T08:39:03.203Z,28.80
2018-07-25T08:41:34.650Z,28.80
2018-07-25T08:44:06.224Z,28.80
2018-07-25T08:46:37.282Z,28.80
2018-07-25T08:49:08.235Z,28.90
2018-07-25T08:51:39.597Z,29.00
2018-07-25T08:54:11.062Z,29.10
2018-07-25T08:56:41.575Z,29.20
2018-07-25T08:59:16.674Z,29.30
2018-07-25T09:01:47.856Z,29.40
2018-07-25T09:04:21.181Z,29.50
2018-07-25T09:06:52.582Z,29.50
2018-07-25T09:09:23.833Z,29.60
2018-07-25T09:11:54.939Z,29.60
2018-07-25T09:14:26.716Z,29.60
2018-07-25T09:16:57.272Z,29.70
2018-07-25T09:19:28.731Z,29.90
2018-07-25T09:21:59.523Z,30.10
2018-07-25T09:24:30.944Z,30.30
2018-07-25T09:27:03.211Z,30.50
2018-07-25T09:29:34.276Z,30.60
2018-07-25T09:32:05.191Z,30.80
2018-07-25T09:34:38.022Z,30.80
2018-07-25T09:37:08.971Z,30.80
2018-07-25T09:39:40.171Z,31.00
2018-07-25T09:42:11.241Z,31.10
2018-07-25T09:44:43.127Z,31.20
2018-07-25T09:47:14.029Z,31.40
2018-07-25T09:49:46.790Z,31.80
2018-07-25T09:52:19.095Z,32.00
2018-07-25T09:54:50.971Z,32.10
2018-07-25T09:57:22.479Z,32.30
2018-07-25T09:59:54.160Z,32.60
2018-07-25T10:02:26.097Z,32.90
2018-07-25T10:04:57.912Z,33.40
2018-07-25T10:07:30.810Z,33.70
2018-07-25T10:10:01.244Z,33.90
2018-07-25T10:12:31.934Z,33.90
2018-07-25T10:15:04.531Z,33.80
2018-07-25T10:17:36.049Z,33.70
2018-07-25T10:20:08.090Z,33.50
2018-07-25T10:22:39.810Z,33.30
2018-07-25T10:25:10.639Z,33.10
2018-07-25T10:27:41.406Z,32.90
2018-07-25T10:30:12.957Z,32.70
2018-07-25T10:32:44.275Z,32.60
2018-07-25T10:35:15.472Z,32.40
2018-07-25T10:37:46.176Z,32.20
2018-07-25T10:40:18.117Z,32.10
2018-07-25T10:42:49.331Z,32.00
2018-07-25T10:45:20.182Z,32.00
2018-07-25T10:47:51.873Z,32.00
2018-07-25T10:50:23.216Z,32.00
2018-07-25T10:52:54.673Z,32.00
2018-07-25T10:55:26.020Z,32.00
2018-07-25T10:57:57.030Z,32.00
2018-07-25T11:00:27.922Z,32.10
2018-07-25T11:02:59.892Z,32.10
2018-07-25T11:05:31.276Z,32.10
2018-07-25T11:08:02.829Z,32.10
2018-07-25T11:10:34.687Z,32.10
2018-07-25T11:13:05.241Z,32.10
2018-07-25T11:15:35.054Z,32.10
2018-07-25T11:18:05.995Z,32.20
2018-07-25T11:20:36.824Z,32.30
2018-07-25T11:23:08.286Z,32.40
2018-07-25T11:25:38.673Z,32.40
2018-07-25T11:28:09.992Z,32.50
2018-07-25T11:30:40.160Z,32.60
2018-07-25T11:33:11.562Z,32.70
2018-07-25T11:35:43.210Z,32.70
2018-07-25T11:38:13.951Z,32.80
2018-07-25T11:40:44.943Z,32.70
2018-07-25T11:43:16.068Z,32.70
2018-07-25T11:45:46.997Z,32.50
2018-07-25T11:48:17.849Z,32.40
2018-07-25T11:50:49.395Z,32.50
2018-07-25T11:53:19.813Z,32.50
2018-07-25T11:55:51.098Z,32.60
2018-07-25T11:58:22.619Z,32.70
2018-07-25T12:00:53.802Z,32.80
2018-07-25T12:03:26.748Z,32.90
2018-07-25T12:05:57.527Z,33.00
2018-07-25T12:08:28.342Z,33.00
2018-07-25T12:11:00.137Z,33.00
2018-07-25T12:13:31.496Z,33.00
2018-07-25T12:16:01.857Z,33.00
2018-07-25T12:18:33.276Z,33.00
2018-07-25T12:21:04.293Z,33.00
2018-07-25T12:23:35.075Z,33.00
2018-07-25T12:26:06.547Z,33.00
2018-07-25T12:28:39.225Z,33.10
2018-07-25T12:31:11.909Z,33.10
2018-07-25T12:33:43.392Z,33.10
2018-07-25T12:36:14.807Z,33.20
2018-07-25T12:38:45.964Z,33.20
2018-07-25T12:41:17.754Z,33.10
2018-07-25T12:43:48.126Z,33.20
2018-07-25T12:46:20.505Z,33.10
2018-07-25T12:48:52.476Z,33.20
2018-07-25T12:51:24.079Z,33.20
2018-07-25T12:53:55.163Z,33.30
2018-07-25T12:56:26.497Z,33.30
2018-07-25T12:58:56.217Z,33.40
2018-07-25T13:01:27.795Z,33.40
2018-07-25T13:03:58.715Z,33.40
2018-07-25T13:06:29.480Z,33.40
2018-07-25T13:09:00.130Z,33.50
2018-07-25T13:11:32.945Z,33.50
2018-07-25T13:14:03.685Z,33.50
2018-07-25T13:16:35.159Z,33.60
2018-07-25T13:19:06.790Z,33.60
2018-07-25T13:21:37.589Z,33.70
2018-07-25T13:24:08.439Z,33.70
2018-07-25T13:26:40.043Z,33.80
2018-07-25T13:29:11.233Z,33.90
2018-07-25T13:31:43.324Z,33.90
2018-07-25T13:34:15.921Z,33.90
2018-07-25T13:36:47.453Z,33.90
2018-07-25T13:39:19.069Z,34.00
2018-07-25T13:41:51.104Z,34.00
2018-07-25T13:44:22.296Z,34.00
2018-07-25T13:46:53.130Z,34.00
2018-07-25T13:49:24.305Z,34.00
2018-07-25T13:51:55.584Z,34.00
2018-07-25T13:54:26.828Z,33.90
2018-07-25T13:56:58.672Z,33.90
2018-07-25T13:59:29.545Z,33.80
2018-07-25T14:02:01.257Z,33.80
2018-07-25T14:04:31.794Z,33.80
2018-07-25T14:07:03.035Z,33.80
2018-07-25T14:09:35.044Z,33.80
2018-07-25T14:12:06.110Z,33.80
2018-07-25T14:14:37.338Z,33.80
2018-07-25T14:17:09.500Z,33.80
2018-07-25T14:19:40.466Z,33.80
2018-07-25T14:22:12.983Z,33.80
2018-07-25T14:24:44.371Z,33.90
2018-07-25T14:27:14.925Z,33.90
2018-07-25T14:29:45.423Z,34.00
2018-07-25T14:32:17.771Z,34.00
2018-07-25T14:34:48.580Z,34.00
2018-07-25T14:37:19.188Z,34.10
2018-07-25T14:39:50.344Z,34.10
2018-07-25T14:42:20.139Z,34.20
2018-07-25T14:44:50.449Z,34.20
2018-07-25T14:47:20.816Z,34.20
2018-07-25T14:49:51.510Z,34.20
2018-07-25T14:52:22.461Z,34.20
2018-07-25T14:54:52.922Z,34.20
2018-07-25T14:57:24.541Z,34.20
2018-07-25T14:59:55.140Z,34.30
2018-07-25T15:02:26.734Z,34.30
2018-07-25T15:04:56.975Z,34.30
2018-07-25T15:07:27.413Z,34.40
2018-07-25T15:09:58.696Z,34.40
2018-07-25T15:12:34.846Z,34.50
2018-07-25T15:15:06.507Z,34.50
2018-07-25T15:17:37.264Z,34.50
2018-07-25T15:20:09.543Z,34.60
2018-07-25T15:22:41.041Z,34.60
2018-07-25T15:25:11.599Z,34.60
2018-07-25T15:27:42.559Z,34.60
2018-07-25T15:30:13.815Z,34.60
2018-07-25T15:32:45.010Z,34.60
2018-07-25T15:35:15.697Z,34.60
2018-07-25T15:37:46.511Z,34.70
2018-07-25T15:40:18.224Z,34.70
2018-07-25T15:42:49.893Z,34.70
2018-07-25T15:45:21.509Z,34.70
2018-07-25T15:47:53.682Z,34.70
2018-07-25T15:50:24.990Z,34.70
2018-07-25T15:52:56.321Z,34.60
2018-07-25T15:55:28.002Z,34.60
2018-07-25T15:57:59.952Z,34.60
2018-07-25T16:00:30.927Z,34.60
2018-07-25T16:03:02.470Z,34.60
2018-07-25T16:05:33.682Z,34.60
2018-07-25T16:08:04.334Z,34.60
2018-07-25T16:10:34.742Z,34.60
2018-07-25T16:13:05.837Z,34.60
2018-07-25T16:15:36.630Z,34.60
2018-07-25T16:18:07.685Z,34.60
2018-07-25T16:20:38.185Z,34.60
2018-07-25T16:23:09.824Z,34.60
2018-07-25T16:25:40.426Z,34.70
2018-07-25T16:30:41.183Z,34.70
2018-07-25T16:33:11.981Z,34.70
2018-07-25T16:35:43.127Z,34.70
2018-07-25T16:38:14.424Z,34.60
2018-07-25T16:40:45.630Z,34.40
2018-07-25T16:43:16.807Z,34.00
2018-07-25T16:45:47.193Z,33.60
2018-07-25T16:48:18.351Z,33.20
2018-07-25T16:50:49.451Z,32.60
2018-07-25T16:53:20.494Z,32.00
2018-07-25T16:55:51.493Z,31.30
2018-07-25T16:58:23.628Z,30.70
2018-07-25T17:00:55.087Z,30.20
2018-07-25T17:03:26.673Z,29.70
2018-07-25T17:05:57.119Z,29.30
2018-07-25T17:08:29.382Z,29.00
2018-07-25T17:10:59.883Z,28.70
2018-07-25T17:13:31.733Z,28.30
2018-07-25T17:16:02.934Z,28.00
2018-07-25T17:18:34.502Z,27.70
2018-07-25T17:21:05.897Z,27.40
2018-07-25T17:23:37.145Z,27.20
2018-07-25T17:26:09.372Z,27.00
2018-07-25T17:28:41.822Z,26.90
2018-07-25T17:31:12.867Z,26.80
2018-07-25T17:33:44.583Z,26.60
2018-07-25T17:36:15.883Z,26.50
2018-07-25T17:38:46.685Z,26.30
2018-07-25T17:41:17.928Z,26.20
2018-07-25T17:43:49.999Z,26.10
2018-07-25T17:46:20.674Z,26.10
2018-07-25T17:48:52.093Z,26.10
2018-07-25T17:51:23.117Z,26.00
2018-07-25T17:53:55.221Z,26.00
2018-07-25T17:56:26.837Z,26.00
2018-07-25T17:58:57.983Z,26.10
2018-07-25T18:01:29.721Z,26.10
2018-07-25T18:04:01.573Z,26.10
2018-07-25T18:06:33.006Z,26.10
2018-07-25T18:09:04.270Z,26.10
2018-07-25T18:11:35.351Z,26.20
2018-07-25T18:14:12.049Z,26.20
2018-07-25T18:16:44.749Z,26.20
2018-07-25T18:19:16.714Z,26.30
2018-07-25T18:21:48.545Z,26.40
2018-07-25T18:24:22.002Z,26.50
2018-07-25T18:26:52.787Z,26.60
2018-07-25T18:29:23.720Z,26.70
2018-07-25T18:31:55.536Z,26.80
2018-07-25T18:34:26.843Z,26.80
2018-07-25T18:36:58.923Z,26.90
2018-07-25T18:39:30.282Z,26.90
2018-07-25T18:42:01.386Z,27.00
2018-07-25T18:44:32.224Z,27.00
2018-07-25T18:47:03.781Z,27.10
2018-07-25T18:49:34.865Z,27.10
2018-07-25T18:52:06.100Z,27.10
2018-07-25T18:54:36.945Z,27.20
2018-07-25T18:57:06.925Z,27.20
2018-07-25T18:59:38.363Z,27.30
2018-07-25T19:04:39.659Z,27.30
2018-07-25T19:07:11.114Z,27.40
2018-07-25T19:09:41.346Z,27.40
2018-07-25T19:12:13.351Z,27.50
2018-07-25T19:14:49.956Z,27.50
2018-07-25T19:17:21.138Z,27.60
2018-07-25T19:19:53.136Z,27.70
2018-07-25T19:22:24.708Z,27.70
2018-07-25T19:24:56.260Z,27.80
2018-07-25T19:27:27.243Z,27.90
2018-07-25T19:29:59.557Z,27.90
2018-07-25T19:32:30.920Z,28.00
2018-07-25T19:35:02.799Z,28.00
2018-07-25T19:37:34.691Z,28.00
2018-07-25T19:40:06.570Z,28.00
2018-07-25T19:42:37.946Z,28.00
2018-07-25T19:45:09.827Z,27.90
2018-07-25T19:50:12.392Z,27.90
2018-07-25T19:52:43.258Z,27.90
2018-07-25T19:55:14.563Z,27.80
2018-07-25T19:57:45.360Z,27.70
2018-07-25T20:00:17.070Z,27.70
2018-07-25T20:05:19.532Z,27.60
2018-07-25T20:10:20.861Z,27.50
2018-07-25T20:12:52.882Z,27.50
2018-07-25T20:16:00.956Z,27.50
2018-07-25T20:18:32.572Z,27.50
2018-07-25T20:21:03.531Z,27.40
2018-07-25T20:23:34.496Z,27.40
2018-07-25T20:26:05.719Z,27.40
2018-07-25T20:28:36.107Z,27.40
2018-07-25T20:31:07.349Z,27.40
2018-07-25T20:33:38.455Z,27.30
2018-07-25T20:36:09.587Z,27.30
2018-07-25T20:38:40.597Z,27.30
2018-07-25T20:41:11.780Z,27.30
2018-07-25T20:43:43.073Z,27.20
2018-07-25T20:46:13.746Z,27.20
2018-07-25T20:48:44.925Z,27.20
2018-07-25T20:51:17.115Z,27.20
2018-07-25T20:53:48.509Z,27.20
2018-07-25T20:56:19.629Z,27.10
2018-07-25T20:58:50.194Z,27.10
2018-07-25T21:01:22.159Z,27.10
2018-07-25T21:03:52.853Z,27.00
2018-07-25T21:06:24.803Z,27.00
2018-07-25T21:08:55.030Z,27.00
2018-07-25T21:11:26.961Z,26.90
2018-07-25T21:13:56.773Z,26.90
2018-07-25T21:16:28.328Z,26.90
2018-07-25T21:18:59.579Z,26.90
2018-07-25T21:21:30.935Z,26.80
2018-07-25T21:24:02.208Z,26.80
2018-07-25T21:26:33.480Z,26.80
2018-07-25T21:29:04.445Z,26.80
2018-07-25T21:31:34.708Z,26.80
2018-07-25T21:34:05.795Z,26.80
2018-07-25T21:36:37.378Z,26.80
2018-07-25T21:39:11.974Z,26.80
2018-07-25T21:41:43.579Z,26.80
2018-07-25T21:44:14.175Z,26.80
2018-07-25T21:46:44.657Z,26.80
2018-07-25T21:49:15.968Z,26.80
2018-07-25T21:51:47.351Z,26.70
2018-07-25T21:54:18.766Z,26.70
2018-07-25T21:56:50.012Z,26.70
2018-07-25T21:59:20.565Z,26.60
2018-07-25T22:01:53.456Z,26.60
2018-07-25T22:04:24.409Z,26.60
2018-07-25T22:06:55.411Z,26.50
2018-07-25T22:09:26.553Z,26.50
2018-07-25T22:11:57.716Z,26.50
2018-07-25T22:14:28.706Z,26.40
2018-07-25T22:17:00.266Z,26.40
2018-07-25T22:19:30.566Z,26.30
2018-07-25T22:22:01.880Z,26.30
2018-07-25T22:24:31.797Z,26.30
2018-07-25T22:29:24.462Z,26.30
2018-07-25T22:31:55.077Z,26.20
2018-07-25T22:34:25.409Z,26.20
2018-07-25T22:36:56.056Z,26.10
2018-07-25T22:39:26.441Z,26.10
2018-07-25T22:41:57.301Z,26.10
2018-07-25T22:44:28.113Z,26.00
2018-07-25T22:46:58.472Z,26.00
2018-07-25T22:49:28.891Z,26.00
2018-07-25T22:51:59.735Z,25.90
2018-07-25T22:54:30.365Z,25.90
2018-07-25T22:59:31.566Z,25.80
2018-07-25T23:02:02.093Z,25.80
2018-07-25T23:04:32.764Z,25.70
2018-07-25T23:07:03.548Z,25.70
2018-07-25T23:09:35.646Z,25.70
2018-07-25T23:12:06.696Z,25.70
2018-07-25T23:14:37.070Z,25.60
2018-07-25T23:17:08.309Z,25.60
2018-07-25T23:19:38.903Z,25.60
2018-07-25T23:22:09.767Z,25.50
2018-07-25T23:27:11.043Z,25.50
2018-07-25T23:29:42.412Z,25.50
2018-07-25T23:32:12.616Z,25.50
2018-07-25T23:34:43.843Z,25.50
2018-07-25T23:37:15.678Z,25.50
2018-07-25T23:39:48.750Z,25.50
2018-07-25T23:42:18.982Z,25.50
2018-07-25T23:44:50.170Z,25.40
2018-07-25T23:47:20.957Z,25.40
2018-07-25T23:49:52.712Z,25.40
2018-07-25T23:52:23.972Z,25.30
2018-07-25T23:54:56.089Z,25.30
2018-07-25T23:57:26.579Z,25.30
2018-07-25T23:59:59.396Z,25.20
